createdAt,value
2023-03-28T00:01:13.988Z,3.70
2023-03-28T00:03:42.448Z,3.95
2023-03-28T00:06:12.634Z,3.88
2023-03-28T00:08:41.613Z,3.89
2023-03-28T00:11:12.598Z,4.25
2023-03-28T00:13:40.459Z,4.14
2023-03-28T00:16:12.699Z,4.13
2023-03-28T00:18:41.593Z,3.95
2023-03-28T00:21:23.269Z,4.18
2023-03-28T00:23:52.607Z,4.11
2023-03-28T00:26:20.735Z,3.87
2023-03-28T00:28:48.799Z,4.11
2023-03-28T00:31:17.948Z,3.93
2023-03-28T00:33:47.569Z,3.92
2023-03-28T00:36:18.531Z,4.17
2023-03-28T00:38:46.556Z,3.72
2023-03-28T00:41:16.104Z,3.93
2023-03-28T00:43:45.405Z,3.97
2023-03-28T00:46:21.581Z,3.87
2023-03-28T00:48:54.581Z,4.10
2023-03-28T00:51:26.305Z,4.28
2023-03-28T00:53:58.021Z,3.76
2023-03-28T00:56:29.768Z,3.89
2023-03-28T00:58:58.593Z,4.14
2023-03-28T01:01:28.328Z,4.45
2023-03-28T01:04:02.493Z,4.12
2023-03-28T01:06:33.479Z,3.93
2023-03-28T01:09:04.594Z,4.31
2023-03-28T01:11:33.390Z,3.91
2023-03-28T01:14:04.395Z,4.42
2023-03-28T01:16:33.890Z,4.18
2023-03-28T01:19:02.996Z,3.98
2023-03-28T01:22:11.081Z,4.09
2023-03-28T01:25:03.487Z,4.06
2023-03-28T01:27:41.212Z,4.18
2023-03-28T01:30:31.612Z,4.25
2023-03-28T01:33:42.100Z,4.05
2023-03-28T01:36:49.266Z,4.02
2023-03-28T01:39:28.915Z,3.71
2023-03-28T01:42:03.664Z,4.19
2023-03-28T01:44:42.212Z,3.91
2023-03-28T01:47:17.709Z,4.11
2023-03-28T01:49:53.122Z,4.28
2023-03-28T01:52:25.537Z,3.87
2023-03-28T01:55:01.986Z,4.18
2023-03-28T01:57:35.921Z,3.82
2023-03-28T02:00:12.712Z,4.27
2023-03-28T02:02:45.022Z,3.17
2023-03-28T02:05:15.826Z,2.97
2023-03-28T02:07:46.185Z,2.75
2023-03-28T02:10:18.488Z,2.69
2023-03-28T02:12:51.805Z,2.36
2023-03-28T02:15:22.836Z,2.56
2023-03-28T02:17:55.428Z,2.38
2023-03-28T02:20:26.628Z,3.14
2023-03-28T02:22:57.780Z,3.34
2023-03-28T02:25:27.258Z,3.23
2023-03-28T02:27:58.497Z,3.50
2023-03-28T02:30:27.316Z,3.49
2023-03-28T02:33:00.594Z,3.44
2023-03-28T02:35:37.823Z,3.31
2023-03-28T02:38:15.993Z,3.72
2023-03-28T02:40:57.249Z,3.85
2023-03-28T02:43:38.146Z,3.50
2023-03-28T02:46:23.714Z,3.86
2023-03-28T02:49:18.573Z,4.06
2023-03-28T02:51:58.613Z,4.09
2023-03-28T02:54:34.126Z,4.22
2023-03-28T02:57:10.514Z,3.83
2023-03-28T02:59:43.691Z,3.95
2023-03-28T03:02:13.104Z,3.72
2023-03-28T03:04:40.813Z,3.64
2023-03-28T03:07:09.529Z,3.95
2023-03-28T03:09:37.337Z,3.80
2023-03-28T03:12:07.052Z,3.73
2023-03-28T03:14:37.002Z,3.87
2023-03-28T03:17:05.756Z,3.71
2023-03-28T03:19:33.592Z,3.82
2023-03-28T03:22:01.752Z,3.55
2023-03-28T03:24:29.500Z,3.65
2023-03-28T03:26:57.243Z,3.98
2023-03-28T03:29:26.359Z,4.04
2023-03-28T03:32:06.857Z,3.51
2023-03-28T03:34:37.011Z,3.91
2023-03-28T03:37:05.099Z,3.41
2023-03-28T03:39:32.855Z,3.72
2023-03-28T03:42:00.581Z,3.92
2023-03-28T03:44:29.874Z,3.92
2023-03-28T03:46:57.929Z,4.16
2023-03-28T03:49:25.986Z,3.87
2023-03-28T03:51:53.977Z,4.05
2023-03-28T03:54:21.849Z,4.04
2023-03-28T03:56:49.643Z,3.90
2023-03-28T03:59:17.470Z,3.79
2023-03-28T04:01:46.628Z,4.00
2023-03-28T04:04:15.587Z,4.04
2023-03-28T04:06:43.351Z,3.77
2023-03-28T04:09:11.532Z,3.68
2023-03-28T04:11:39.226Z,3.67
2023-03-28T04:14:07.028Z,3.72
2023-03-28T04:16:40.968Z,4.05
2023-03-28T04:19:13.785Z,4.00
2023-03-28T04:21:43.746Z,3.88
2023-03-28T04:24:15.652Z,3.79
2023-03-28T04:26:45.809Z,3.92
2023-03-28T04:29:13.770Z,3.83
2023-03-28T04:31:41.626Z,3.77
2023-03-28T04:34:10.961Z,4.16
2023-03-28T04:36:41.024Z,3.78
2023-03-28T04:39:09.005Z,4.39
2023-03-28T04:41:36.848Z,4.18
2023-03-28T04:44:04.588Z,3.88
2023-03-28T04:46:32.722Z,4.09
2023-03-28T04:49:00.454Z,4.19
2023-03-28T04:51:29.566Z,4.04
2023-03-28T04:53:57.313Z,4.16
2023-03-28T04:56:25.096Z,4.39
2023-03-28T04:58:52.803Z,4.21
2023-03-28T05:01:22.597Z,3.94
2023-03-28T05:03:50.528Z,4.21
2023-03-28T05:06:18.527Z,3.95
2023-03-28T05:08:47.764Z,4.48
2023-03-28T05:11:15.534Z,4.44
2023-03-28T05:13:43.373Z,4.33
2023-03-28T05:16:11.153Z,4.18
2023-03-28T05:18:38.884Z,3.79
2023-03-28T05:21:07.273Z,4.05
2023-03-28T05:23:35.008Z,4.14
2023-03-28T05:26:04.156Z,3.95
2023-03-28T05:28:31.951Z,4.05
2023-03-28T05:30:59.821Z,4.28
2023-03-28T05:33:27.712Z,4.37
2023-03-28T05:35:55.505Z,4.35
2023-03-28T05:38:23.326Z,4.21
2023-03-28T05:40:51.120Z,4.15
2023-03-28T05:43:20.379Z,3.76
2023-03-28T05:45:48.268Z,3.94
2023-03-28T05:48:16.095Z,4.03
2023-03-28T05:50:45.553Z,3.66
2023-03-28T05:53:13.292Z,3.44
2023-03-28T05:55:42.196Z,3.33
2023-03-28T05:58:10.010Z,3.79
2023-03-28T06:00:39.156Z,3.98
2023-03-28T06:03:07.483Z,3.26
2023-03-28T06:05:35.729Z,3.08
2023-03-28T06:08:03.939Z,3.75
2023-03-28T06:10:31.893Z,3.72
2023-03-28T06:12:59.615Z,2.96
2023-03-28T06:15:27.377Z,2.76
2023-03-28T06:17:57.885Z,3.30
2023-03-28T06:20:25.788Z,2.96
2023-03-28T06:22:53.516Z,2.80
2023-03-28T06:25:21.301Z,2.98
2023-03-28T06:27:49.021Z,3.24
2023-03-28T06:30:17.025Z,3.18
2023-03-28T06:32:44.797Z,3.09
2023-03-28T06:35:13.981Z,3.86
2023-03-28T06:37:41.743Z,3.55
2023-03-28T06:40:10.826Z,3.65
2023-03-28T06:42:38.561Z,3.34
2023-03-28T06:45:07.206Z,4.04
2023-03-28T06:47:34.957Z,3.91
2023-03-28T06:50:02.761Z,4.33
2023-03-28T06:52:31.836Z,4.14
2023-03-28T06:55:00.438Z,3.74
2023-03-28T06:57:28.276Z,3.91
2023-03-28T06:59:55.991Z,3.65
2023-03-28T07:02:23.860Z,3.56
2023-03-28T07:04:51.633Z,3.87
2023-03-28T07:07:19.396Z,3.30
2023-03-28T07:09:49.931Z,3.03
2023-03-28T07:12:18.771Z,2.97
2023-03-28T07:14:47.637Z,2.96
2023-03-28T07:17:15.903Z,3.21
2023-03-28T07:19:44.928Z,2.89
2023-03-28T07:22:12.808Z,3.43
2023-03-28T07:24:42.375Z,3.53
2023-03-28T07:27:15.990Z,4.00
2023-03-28T07:29:44.185Z,3.94
2023-03-28T07:32:15.396Z,4.34
2023-03-28T07:34:45.206Z,4.66
2023-03-28T07:37:12.950Z,4.19
2023-03-28T07:39:43.654Z,3.82
2023-03-28T07:42:13.808Z,4.00
2023-03-28T07:44:42.459Z,4.94
2023-03-28T07:47:11.082Z,4.68
2023-03-28T07:49:39.583Z,4.66
2023-03-28T07:52:07.716Z,4.43
2023-03-28T07:54:35.445Z,5.15
2023-03-28T07:57:03.260Z,5.19
2023-03-28T07:59:32.345Z,4.98
2023-03-28T08:02:00.122Z,4.87
2023-03-28T08:04:28.045Z,4.54
2023-03-28T08:06:56.156Z,5.02
2023-03-28T08:09:23.855Z,5.62
2023-03-28T08:11:51.584Z,5.08
2023-03-28T08:14:19.797Z,6.04
2023-03-28T08:16:48.940Z,6.11
2023-03-28T08:19:16.725Z,6.31
2023-03-28T08:21:44.762Z,6.40
2023-03-28T08:24:19.649Z,6.43
2023-03-28T08:26:50.246Z,5.99
2023-03-28T08:29:18.000Z,6.66
2023-03-28T08:31:45.851Z,5.85
2023-03-28T08:34:15.062Z,6.14
2023-03-28T08:36:43.269Z,6.43
2023-03-28T08:39:11.041Z,6.05
2023-03-28T08:41:57.018Z,5.95
2023-03-28T08:44:37.502Z,5.60
2023-03-28T08:47:11.621Z,6.12
2023-03-28T08:49:46.557Z,6.50
2023-03-28T08:52:17.093Z,6.40
2023-03-28T08:54:48.540Z,6.86
2023-03-28T08:57:21.131Z,6.31
2023-03-28T08:59:54.762Z,6.49
2023-03-28T09:02:26.686Z,6.58
2023-03-28T09:05:08.234Z,7.29
2023-03-28T09:07:54.733Z,7.00
2023-03-28T09:10:28.567Z,7.80
2023-03-28T09:13:07.986Z,7.38
2023-03-28T09:15:46.820Z,7.57
2023-03-28T09:18:45.636Z,8.00
2023-03-28T09:21:24.545Z,9.15
2023-03-28T09:24:07.296Z,9.29
2023-03-28T09:26:37.612Z,9.78
2023-03-28T09:29:09.292Z,9.23
2023-03-28T09:31:41.413Z,9.78
2023-03-28T09:34:19.956Z,10.33
2023-03-28T09:36:53.426Z,9.60
2023-03-28T09:39:33.364Z,9.44
2023-03-28T09:42:05.337Z,8.92
2023-03-28T09:44:53.598Z,11.24
2023-03-28T09:47:22.390Z,10.13
2023-03-28T09:49:56.460Z,10.42
2023-03-28T09:52:31.909Z,10.53
2023-03-28T09:55:01.403Z,10.70
2023-03-28T09:58:06.265Z,10.43
2023-03-28T10:00:40.824Z,11.11
2023-03-28T10:03:23.136Z,10.53
2023-03-28T10:05:52.058Z,10.90
2023-03-28T10:08:27.305Z,10.67
2023-03-28T10:11:02.282Z,10.51
2023-03-28T10:13:36.866Z,11.08
2023-03-28T10:16:06.292Z,10.57
2023-03-28T10:18:34.664Z,11.37
2023-03-28T10:21:11.773Z,10.37
2023-03-28T10:23:45.527Z,11.09
2023-03-28T10:26:18.279Z,11.74
2023-03-28T10:28:46.168Z,10.57
2023-03-28T10:31:29.058Z,12.33
2023-03-28T10:33:59.193Z,11.68
2023-03-28T10:36:31.595Z,10.15
2023-03-28T10:39:13.647Z,10.93
2023-03-28T10:41:53.425Z,11.00
2023-03-28T10:44:28.234Z,10.51
2023-03-28T10:46:58.170Z,11.38
2023-03-28T10:49:28.371Z,12.28
2023-03-28T10:51:58.005Z,12.26
2023-03-28T10:54:56.569Z,12.04
2023-03-28T10:57:33.598Z,12.24
2023-03-28T11:00:10.731Z,11.79
2023-03-28T11:03:08.273Z,12.49
2023-03-28T11:05:52.270Z,12.26
2023-03-28T11:08:37.670Z,11.98
2023-03-28T11:11:17.671Z,13.02
2023-03-28T11:13:54.522Z,13.82
2023-03-28T11:16:32.092Z,11.60
2023-03-28T11:19:11.320Z,12.62
2023-03-28T11:21:52.269Z,13.76
2023-03-28T11:24:29.468Z,13.60
2023-03-28T11:27:15.309Z,11.98
2023-03-28T11:29:49.221Z,13.23
2023-03-28T11:32:22.604Z,11.77
2023-03-28T11:35:04.063Z,12.26
2023-03-28T11:37:37.528Z,13.04
2023-03-28T11:40:14.145Z,13.09
2023-03-28T11:42:48.392Z,11.41
2023-03-28T11:45:37.485Z,13.13
2023-03-28T11:48:13.611Z,11.33
2023-03-28T11:50:49.991Z,12.90
2023-03-28T11:53:23.941Z,11.56
2023-03-28T11:55:58.615Z,11.79
2023-03-28T11:58:30.923Z,12.46
2023-03-28T12:01:05.084Z,12.09
2023-03-28T12:03:38.923Z,12.51
2023-03-28T12:06:13.546Z,13.99
2023-03-28T12:08:47.318Z,12.57
2023-03-28T12:11:21.510Z,12.98
2023-03-28T12:14:08.928Z,13.01
2023-03-28T12:16:45.419Z,13.77
2023-03-28T12:19:18.367Z,13.24
2023-03-28T12:21:51.651Z,13.32
2023-03-28T12:24:26.755Z,14.20
2023-03-28T12:27:04.603Z,13.62
2023-03-28T12:29:40.237Z,13.44
2023-03-28T12:32:27.205Z,13.43
2023-03-28T12:35:05.108Z,13.52
2023-03-28T12:37:39.755Z,13.34
2023-03-28T12:40:20.657Z,13.80
2023-03-28T12:42:50.794Z,13.41
2023-03-28T12:45:24.506Z,13.49
2023-03-28T12:47:59.457Z,12.41
2023-03-28T12:50:31.192Z,13.37
2023-03-28T12:53:00.331Z,12.85
2023-03-28T12:55:46.150Z,13.39
2023-03-28T12:58:22.695Z,13.37
2023-03-28T13:01:20.271Z,13.59
2023-03-28T13:03:58.515Z,12.39
2023-03-28T13:06:38.053Z,12.84
2023-03-28T13:09:43.637Z,13.50
2023-03-28T13:12:29.199Z,13.63
2023-03-28T13:15:02.581Z,13.69
2023-03-28T13:17:32.911Z,13.43
2023-03-28T13:20:25.695Z,13.28
2023-03-28T13:22:58.387Z,13.73
2023-03-28T13:25:32.656Z,13.72
2023-03-28T13:28:22.515Z,13.06
2023-03-28T13:31:06.751Z,12.78
2023-03-28T13:33:38.236Z,12.74
2023-03-28T13:36:31.018Z,13.89
2023-03-28T13:39:08.088Z,14.18
2023-03-28T13:41:53.722Z,13.33
2023-03-28T13:44:24.144Z,14.36
2023-03-28T13:46:54.101Z,14.27
2023-03-28T13:49:25.266Z,12.54
2023-03-28T13:52:00.767Z,14.67
2023-03-28T13:54:28.734Z,14.29
2023-03-28T13:57:03.432Z,13.99
2023-03-28T13:59:35.671Z,14.77
2023-03-28T14:02:14.197Z,14.21
2023-03-28T14:04:42.033Z,14.09
2023-03-28T14:07:14.655Z,14.24
2023-03-28T14:09:42.369Z,14.02
2023-03-28T14:12:14.789Z,13.83
2023-03-28T14:14:44.000Z,14.06
2023-03-28T14:17:16.665Z,13.45
2023-03-28T14:19:47.384Z,15.05
2023-03-28T14:22:19.693Z,15.20
2023-03-28T14:24:51.988Z,14.47
2023-03-28T14:27:30.924Z,14.57
2023-03-28T14:30:00.876Z,15.72
2023-03-28T14:32:32.288Z,15.11
2023-03-28T14:35:18.951Z,14.72
2023-03-28T14:37:52.794Z,13.44
2023-03-28T14:40:28.824Z,13.11
2023-03-28T14:43:00.552Z,13.50
2023-03-28T14:45:29.104Z,12.92
2023-03-28T14:47:57.799Z,13.46
2023-03-28T14:50:27.736Z,14.47
2023-03-28T14:53:01.484Z,13.39
2023-03-28T14:55:30.085Z,12.19
2023-03-28T14:57:59.722Z,10.80
2023-03-28T15:00:36.416Z,10.68
2023-03-28T15:03:07.245Z,10.34
2023-03-28T15:05:37.378Z,11.13
2023-03-28T15:08:08.619Z,11.17
2023-03-28T15:10:36.802Z,11.62
2023-03-28T15:13:08.310Z,11.89
2023-03-28T15:15:38.158Z,11.53
2023-03-28T15:18:11.837Z,11.03
2023-03-28T15:20:43.502Z,11.80
2023-03-28T15:23:17.635Z,13.18
2023-03-28T15:25:45.882Z,11.78
2023-03-28T15:28:17.637Z,11.52
2023-03-28T15:30:47.585Z,11.33
2023-03-28T15:33:19.359Z,10.60
2023-03-28T15:35:47.200Z,10.84
2023-03-28T15:38:21.544Z,10.05
2023-03-28T15:40:51.512Z,9.96
2023-03-28T15:43:39.018Z,9.42
2023-03-28T15:46:12.816Z,9.72
2023-03-28T15:48:42.399Z,10.04
2023-03-28T15:51:15.681Z,9.62
2023-03-28T15:53:47.596Z,9.71
2023-03-28T15:56:24.343Z,9.98
2023-03-28T15:58:52.681Z,9.77
2023-03-28T16:01:26.383Z,9.79
2023-03-28T16:04:16.106Z,9.81
2023-03-28T16:06:45.633Z,10.29
2023-03-28T16:09:18.605Z,10.52
2023-03-28T16:11:47.582Z,10.04
2023-03-28T16:14:18.399Z,10.68
2023-03-28T16:16:46.454Z,11.43
2023-03-28T16:19:20.293Z,11.10
2023-03-28T16:21:48.318Z,10.83
2023-03-28T16:24:17.683Z,10.93
2023-03-28T16:26:45.511Z,10.54
2023-03-28T16:29:13.455Z,9.86
2023-03-28T16:31:41.510Z,10.23
2023-03-28T16:34:10.195Z,10.06
2023-03-28T16:36:38.573Z,9.93
2023-03-28T16:39:08.018Z,9.79
2023-03-28T16:41:37.473Z,9.46
2023-03-28T16:44:06.128Z,9.63
2023-03-28T16:46:34.003Z,9.94
2023-03-28T16:49:01.787Z,9.13
2023-03-28T16:51:29.632Z,9.78
2023-03-28T16:53:57.407Z,9.41
2023-03-28T16:56:27.297Z,9.68
2023-03-28T16:58:56.407Z,9.67
2023-03-28T17:01:24.279Z,9.63
2023-03-28T17:03:53.604Z,9.30
2023-03-28T17:06:21.907Z,9.54
2023-03-28T17:08:49.794Z,9.68
2023-03-28T17:11:17.587Z,9.33
2023-03-28T17:13:47.491Z,9.04
2023-03-28T17:16:16.915Z,9.30
2023-03-28T17:18:44.672Z,9.38
2023-03-28T17:21:17.348Z,9.37
2023-03-28T17:23:47.822Z,8.77
2023-03-28T17:26:16.428Z,8.46
2023-03-28T17:28:44.720Z,8.31
2023-03-28T17:31:15.133Z,8.47
2023-03-28T17:33:44.817Z,8.45
2023-03-28T17:36:22.553Z,8.28
2023-03-28T17:38:51.367Z,8.12
2023-03-28T17:41:19.646Z,8.31
2023-03-28T17:43:47.384Z,8.12
2023-03-28T17:46:16.350Z,8.44
2023-03-28T17:48:45.859Z,8.45
2023-03-28T17:51:13.901Z,8.23
2023-03-28T17:53:43.492Z,8.14
2023-03-28T17:56:12.623Z,8.34
2023-03-28T17:58:40.676Z,8.10
2023-03-28T18:01:10.547Z,8.40
2023-03-28T18:03:39.137Z,7.95
2023-03-28T18:06:08.894Z,7.73
2023-03-28T18:08:38.040Z,7.49
2023-03-28T18:11:08.481Z,7.66
2023-03-28T18:13:37.880Z,7.70
2023-03-28T18:16:09.303Z,7.72
2023-03-28T18:18:37.586Z,8.06
2023-03-28T18:21:07.608Z,7.70
2023-03-28T18:23:37.002Z,7.55
2023-03-28T18:26:05.451Z,7.88
2023-03-28T18:28:33.501Z,7.67
2023-03-28T18:31:08.096Z,8.00
2023-03-28T18:33:36.160Z,7.79
2023-03-28T18:36:04.254Z,8.56
2023-03-28T18:38:38.228Z,7.88
2023-03-28T18:41:08.451Z,7.72
2023-03-28T18:43:37.193Z,7.63
2023-03-28T18:46:07.758Z,7.59
2023-03-28T18:48:36.541Z,7.64
2023-03-28T18:51:06.385Z,7.46
2023-03-28T18:53:34.374Z,7.69
2023-03-28T18:56:03.640Z,7.65
2023-03-28T18:58:31.549Z,7.77
2023-03-28T19:01:00.322Z,7.89
2023-03-28T19:03:29.873Z,7.89
2023-03-28T19:05:58.265Z,7.63
2023-03-28T19:08:27.234Z,7.86
2023-03-28T19:10:55.804Z,7.75
2023-03-28T19:13:25.743Z,8.02
2023-03-28T19:16:00.262Z,7.47
2023-03-28T19:18:29.189Z,7.09
2023-03-28T19:20:58.088Z,7.68
2023-03-28T19:23:27.477Z,7.46
2023-03-28T19:25:56.168Z,7.38
2023-03-28T19:28:25.465Z,7.02
2023-03-28T19:30:58.622Z,7.61
2023-03-28T19:33:26.556Z,7.71
2023-03-28T19:35:54.524Z,7.76
2023-03-28T19:38:23.224Z,7.30
2023-03-28T19:40:52.265Z,7.44
2023-03-28T19:43:23.749Z,7.57
2023-03-28T19:45:53.382Z,7.49
2023-03-28T19:48:21.623Z,7.54
2023-03-28T19:50:49.916Z,7.41
2023-03-28T19:53:17.740Z,7.64
2023-03-28T19:55:52.361Z,7.59
2023-03-28T19:58:20.352Z,7.67
2023-03-28T20:00:49.056Z,7.56
2023-03-28T20:03:18.670Z,7.31
2023-03-28T20:05:48.303Z,7.24
2023-03-28T20:08:18.351Z,7.43
2023-03-28T20:10:48.282Z,7.35
2023-03-28T20:13:16.712Z,7.40
2023-03-28T20:15:46.256Z,7.33
2023-03-28T20:18:20.406Z,7.24
2023-03-28T20:20:54.410Z,7.38
2023-03-28T20:23:23.939Z,7.49
2023-03-28T20:25:53.437Z,7.28
2023-03-28T20:28:24.350Z,7.45
2023-03-28T20:30:53.336Z,7.49
2023-03-28T20:33:21.527Z,7.31
2023-03-28T20:35:54.111Z,7.14
2023-03-28T20:38:22.157Z,7.11
2023-03-28T20:40:50.211Z,7.15
2023-03-28T20:43:20.108Z,7.30
2023-03-28T20:45:53.696Z,7.31
2023-03-28T20:48:34.176Z,7.38
2023-03-28T20:51:04.566Z,7.44
2023-03-28T20:53:33.048Z,6.90
2023-03-28T20:56:03.477Z,7.08
2023-03-28T20:58:32.618Z,7.48
2023-03-28T21:01:02.561Z,7.13
2023-03-28T21:03:49.055Z,7.14
2023-03-28T21:06:21.465Z,6.92
2023-03-28T21:08:51.051Z,6.94
2023-03-28T21:11:21.234Z,6.98
2023-03-28T21:13:49.363Z,6.80
2023-03-28T21:16:17.987Z,6.72
2023-03-28T21:18:46.785Z,6.72
2023-03-28T21:21:16.453Z,6.98
2023-03-28T21:23:46.793Z,7.13
2023-03-28T21:26:16.500Z,6.95
2023-03-28T21:28:44.647Z,6.96
2023-03-28T21:31:14.270Z,7.23
2023-03-28T21:33:42.692Z,6.84
2023-03-28T21:36:13.263Z,7.04
2023-03-28T21:38:41.609Z,6.72
2023-03-28T21:41:11.228Z,6.54
2023-03-28T21:43:40.164Z,6.59
2023-03-28T21:46:08.779Z,6.66
2023-03-28T21:48:37.580Z,6.38
2023-03-28T21:51:06.280Z,6.49
2023-03-28T21:53:36.845Z,6.33
2023-03-28T21:56:06.677Z,6.25
2023-03-28T21:58:36.185Z,6.51
2023-03-28T22:01:04.874Z,6.35
2023-03-28T22:03:36.203Z,6.10
2023-03-28T22:06:04.142Z,6.67
2023-03-28T22:08:31.890Z,6.26
2023-03-28T22:11:02.255Z,5.99
2023-03-28T22:13:30.552Z,6.47
2023-03-28T22:16:00.138Z,6.22
2023-03-28T22:18:30.688Z,6.41
2023-03-28T22:21:02.583Z,6.07
2023-03-28T22:23:30.748Z,6.35
2023-03-28T22:25:58.637Z,6.13
2023-03-28T22:28:26.683Z,6.18
2023-03-28T22:30:55.524Z,6.40
2023-03-28T22:33:25.507Z,6.30
2023-03-28T22:35:53.621Z,5.79
2023-03-28T22:38:21.460Z,6.21
2023-03-28T22:40:49.191Z,6.18
2023-03-28T22:43:17.608Z,6.24
2023-03-28T22:45:45.332Z,6.14
2023-03-28T22:48:15.123Z,6.43
2023-03-28T22:50:45.316Z,6.18
2023-03-28T22:53:14.301Z,5.85
2023-03-28T22:55:42.950Z,6.51
2023-03-28T22:58:10.676Z,6.24
2023-03-28T23:00:38.813Z,6.13
2023-03-28T23:03:08.080Z,6.16
2023-03-28T23:05:36.351Z,6.03
2023-03-28T23:08:06.425Z,6.13
2023-03-28T23:10:34.783Z,6.59
2023-03-28T23:13:02.818Z,6.29
2023-03-28T23:15:30.716Z,6.22
2023-03-28T23:17:58.648Z,6.05
2023-03-28T23:20:26.627Z,6.28
2023-03-28T23:22:54.976Z,6.08
2023-03-28T23:25:24.252Z,6.12
2023-03-28T23:27:51.984Z,5.97
2023-03-28T23:30:19.813Z,5.81
2023-03-28T23:32:47.720Z,5.90
2023-03-28T23:35:15.510Z,5.96
2023-03-28T23:37:43.256Z,5.78
2023-03-28T23:40:14.783Z,5.89
2023-03-28T23:42:45.278Z,6.16
2023-03-28T23:45:15.593Z,6.04
2023-03-28T23:47:44.314Z,5.94
2023-03-28T23:50:12.980Z,5.57
2023-03-28T23:52:40.921Z,6.17
2023-03-28T23:55:09.949Z,6.02
2023-03-28T23:57:37.806Z,5.86
